createdAt,value
2018-07-27T00:00:20.503Z,26.00
2018-07-27T00:05:15.342Z,25.90
2018-07-27T00:07:42.693Z,25.90
2018-07-27T00:10:13.374Z,25.90
2018-07-27T00:12:40.729Z,25.80
2018-07-27T00:15:08.262Z,25.70
2018-07-27T00:17:35.770Z,25.70
2018-07-27T00:20:03.582Z,25.70
2018-07-27T00:22:33.140Z,25.70
2018-07-27T00:25:00.601Z,25.70
2018-07-27T00:27:28.058Z,25.60
2018-07-27T00:29:55.596Z,25.50
2018-07-27T00:32:23.132Z,25.50
2018-07-27T00:34:55.441Z,25.50
2018-07-27T00:37:22.863Z,25.50
2018-07-27T00:39:50.259Z,25.40
2018-07-27T00:42:18.098Z,25.40
2018-07-27T00:44:45.495Z,25.40
2018-07-27T00:47:12.866Z,25.40
2018-07-27T00:49:40.201Z,25.40
2018-07-27T00:52:07.647Z,25.40
2018-07-27T00:54:35.075Z,25.30
2018-07-27T00:57:02.526Z,25.30
2018-07-27T00:59:29.923Z,25.30
2018-07-27T01:01:57.393Z,25.00
2018-07-27T01:04:24.786Z,25.30
2018-07-27T01:06:52.657Z,25.20
2018-07-27T01:09:20.035Z,25.20
2018-07-27T01:11:47.633Z,25.20
2018-07-27T01:14:15.077Z,25.20
2018-07-27T01:16:42.678Z,25.20
2018-07-27T01:19:10.169Z,25.10
2018-07-27T01:21:37.541Z,25.10
2018-07-27T01:24:05.059Z,25.10
2018-07-27T01:26:32.416Z,25.00
2018-07-27T01:28:59.818Z,25.00
2018-07-27T01:31:27.214Z,24.90
2018-07-27T01:33:54.777Z,24.90
2018-07-27T01:36:22.374Z,24.70
2018-07-27T01:38:49.822Z,24.80
2018-07-27T01:41:17.239Z,24.70
2018-07-27T01:43:44.614Z,24.70
2018-07-27T01:46:12.023Z,24.70
2018-07-27T01:48:39.402Z,24.60
2018-07-27T01:51:06.902Z,24.50
2018-07-27T01:53:34.220Z,24.50
2018-07-27T01:56:02.090Z,24.40
2018-07-27T01:58:29.507Z,24.40
2018-07-27T02:00:56.913Z,24.30
2018-07-27T02:03:24.426Z,24.30
2018-07-27T02:05:52.839Z,24.20
2018-07-27T02:08:20.157Z,24.20
2018-07-27T02:10:47.593Z,24.20
2018-07-27T02:13:15.774Z,24.10
2018-07-27T02:15:43.146Z,24.10
2018-07-27T02:18:10.991Z,24.00
2018-07-27T02:20:38.353Z,24.00
2018-07-27T02:23:06.131Z,24.00
2018-07-27T02:25:33.493Z,23.90
2018-07-27T02:28:00.858Z,23.90
2018-07-27T02:30:28.802Z,23.90
2018-07-27T02:35:23.745Z,23.70
2018-07-27T02:37:51.485Z,23.70
2018-07-27T02:40:18.903Z,23.70
2018-07-27T02:42:46.263Z,23.60
2018-07-27T02:45:13.628Z,23.50
2018-07-27T02:47:45.785Z,23.50
2018-07-27T02:50:13.135Z,23.50
2018-07-27T02:52:40.475Z,23.50
2018-07-27T02:55:07.949Z,23.40
2018-07-27T02:57:35.306Z,23.40
2018-07-27T03:00:03.394Z,23.40
2018-07-27T03:02:30.782Z,23.30
2018-07-27T03:04:58.139Z,23.20
2018-07-27T03:07:25.636Z,23.20
2018-07-27T03:09:53.217Z,23.20
2018-07-27T03:12:20.571Z,23.00
2018-07-27T03:14:47.944Z,23.00
2018-07-27T03:17:15.322Z,23.00
2018-07-27T03:19:42.716Z,23.00
2018-07-27T03:22:10.287Z,23.00
2018-07-27T03:24:37.673Z,23.00
2018-07-27T03:27:05.156Z,23.00
2018-07-27T03:29:32.552Z,22.90
2018-07-27T03:31:59.936Z,22.90
2018-07-27T03:34:27.325Z,22.90
2018-07-27T03:36:54.684Z,22.80
2018-07-27T03:39:22.029Z,22.70
2018-07-27T03:41:53.719Z,22.70
2018-07-27T03:44:21.132Z,22.80
2018-07-27T03:46:48.479Z,22.70
2018-07-27T03:49:15.865Z,22.60
2018-07-27T03:51:43.235Z,22.60
2018-07-27T03:54:10.639Z,22.50
2018-07-27T03:56:38.818Z,23.00
2018-07-27T03:59:06.282Z,22.40
2018-07-27T04:01:34.672Z,22.50
2018-07-27T04:04:02.255Z,22.40
2018-07-27T04:06:29.643Z,22.40
2018-07-27T04:08:57.023Z,22.40
2018-07-27T04:11:24.354Z,22.40
2018-07-27T04:13:51.834Z,22.40
2018-07-27T04:16:19.274Z,22.30
2018-07-27T04:18:46.742Z,22.30
2018-07-27T04:21:14.125Z,22.30
2018-07-27T04:23:41.482Z,22.30
2018-07-27T04:26:09.002Z,22.30
2018-07-27T04:28:36.373Z,22.30
2018-07-27T04:31:03.759Z,22.30
2018-07-27T04:33:31.191Z,22.30
2018-07-27T04:35:58.550Z,22.30
2018-07-27T04:38:25.922Z,22.30
2018-07-27T04:40:53.362Z,22.30
2018-07-27T04:43:20.753Z,22.30
2018-07-27T04:45:48.242Z,22.30
2018-07-27T04:48:15.616Z,22.30
2018-07-27T04:50:43.108Z,22.40
2018-07-27T04:53:10.664Z,22.30
2018-07-27T04:55:38.038Z,22.40
2018-07-27T04:58:07.083Z,22.30
2018-07-27T05:00:34.479Z,22.30
2018-07-27T05:03:01.820Z,22.40
2018-07-27T05:05:29.215Z,22.40
2018-07-27T05:07:56.587Z,22.40
2018-07-27T05:10:29.562Z,22.50
2018-07-27T05:12:56.927Z,22.60
2018-07-27T05:15:24.334Z,22.60
2018-07-27T05:17:51.714Z,22.70
2018-07-27T05:20:19.081Z,22.80
2018-07-27T05:22:46.554Z,22.80
2018-07-27T05:25:15.343Z,22.90
2018-07-27T05:27:42.775Z,23.00
2018-07-27T05:30:10.826Z,23.20
2018-07-27T05:32:38.275Z,23.30
2018-07-27T05:35:05.840Z,23.40
2018-07-27T05:37:33.174Z,23.50
2018-07-27T05:40:00.550Z,23.50
2018-07-27T05:42:28.387Z,23.60
2018-07-27T05:44:55.759Z,23.70
2018-07-27T05:47:23.156Z,23.90
2018-07-27T05:49:52.052Z,24.00
2018-07-27T05:52:19.405Z,24.10
2018-07-27T05:54:46.745Z,24.20
2018-07-27T05:57:14.177Z,24.30
2018-07-27T05:59:41.547Z,24.40
2018-07-27T06:02:10.435Z,24.50
2018-07-27T06:04:37.539Z,24.60
2018-07-27T06:07:04.957Z,24.70
2018-07-27T06:09:32.317Z,24.80
2018-07-27T06:11:59.830Z,25.00
2018-07-27T06:14:27.251Z,25.10
2018-07-27T06:16:54.683Z,25.10
2018-07-27T06:19:22.118Z,25.30
2018-07-27T06:21:49.627Z,25.40
2018-07-27T06:24:17.224Z,25.50
2018-07-27T06:26:44.542Z,25.60
2018-07-27T06:29:11.987Z,25.70
2018-07-27T06:31:39.364Z,25.90
2018-07-27T06:34:06.822Z,26.00
2018-07-27T06:36:34.187Z,26.10
2018-07-27T06:39:01.587Z,26.20
2018-07-27T06:41:29.025Z,26.30
2018-07-27T06:43:56.449Z,26.40
2018-07-27T06:48:51.389Z,26.70
2018-07-27T06:51:18.933Z,26.80
2018-07-27T06:53:46.342Z,27.00
2018-07-27T06:56:13.713Z,27.10
2018-07-27T06:58:41.222Z,26.90
2018-07-27T07:01:08.942Z,27.40
2018-07-27T07:03:36.427Z,27.60
2018-07-27T07:06:03.744Z,27.70
2018-07-27T07:08:31.281Z,27.80
2018-07-27T07:10:58.641Z,27.90
2018-07-27T07:13:26.042Z,28.10
2018-07-27T07:15:53.389Z,28.30
2018-07-27T07:18:20.883Z,28.50
2018-07-27T07:20:48.294Z,28.60
2018-07-27T07:23:15.687Z,28.70
2018-07-27T07:25:43.274Z,28.90
2018-07-27T07:28:10.654Z,29.20
2018-07-27T07:30:38.054Z,29.40
2018-07-27T07:33:05.429Z,29.60
2018-07-27T07:35:32.788Z,30.10
2018-07-27T07:38:00.135Z,30.40
2018-07-27T07:40:27.524Z,30.90
2018-07-27T07:42:55.320Z,31.80
2018-07-27T07:45:22.696Z,33.20
2018-07-27T07:47:50.152Z,34.60
2018-07-27T07:50:17.600Z,36.40
2018-07-27T07:52:44.984Z,38.00
2018-07-27T07:55:12.435Z,39.80
2018-07-27T07:57:39.793Z,41.40
2018-07-27T08:00:09.777Z,42.60
2018-07-27T08:02:37.193Z,43.80
2018-07-27T08:05:04.750Z,44.80
2018-07-27T08:07:32.119Z,45.70
2018-07-27T08:09:59.539Z,46.20
2018-07-27T08:12:26.928Z,46.80
2018-07-27T08:14:57.485Z,47.50
2018-07-27T08:17:24.989Z,47.60
2018-07-27T08:19:52.326Z,47.80
2018-07-27T08:22:19.815Z,48.10
2018-07-27T08:24:47.179Z,48.10
2018-07-27T08:27:19.902Z,48.30
2018-07-27T08:29:47.255Z,48.30
2018-07-27T08:32:14.734Z,48.20
2018-07-27T08:34:42.463Z,48.20
2018-07-27T08:37:10.025Z,47.80
2018-07-27T08:39:42.991Z,46.80
2018-07-27T08:42:10.370Z,45.30
2018-07-27T08:44:40.045Z,43.70
2018-07-27T08:47:07.628Z,41.80
2018-07-27T08:49:35.047Z,40.30
2018-07-27T08:52:07.071Z,39.20
2018-07-27T08:54:34.467Z,38.20
2018-07-27T08:57:01.847Z,37.50
2018-07-27T08:59:29.204Z,36.70
2018-07-27T09:01:56.644Z,36.30
2018-07-27T09:04:23.989Z,35.90
2018-07-27T09:06:52.651Z,35.50
2018-07-27T09:09:20.052Z,35.30
2018-07-27T09:11:47.373Z,35.10
2018-07-27T09:14:14.722Z,35.00
2018-07-27T09:16:42.134Z,34.80
2018-07-27T09:21:44.924Z,34.60
2018-07-27T09:24:12.489Z,34.60
2018-07-27T09:26:39.809Z,34.60
2018-07-27T09:29:07.333Z,34.50
2018-07-27T09:31:34.688Z,34.60
2018-07-27T09:34:03.473Z,34.50
2018-07-27T09:36:30.983Z,34.50
2018-07-27T09:38:58.350Z,34.60
2018-07-27T09:41:25.769Z,34.50
2018-07-27T09:46:25.220Z,34.70
2018-07-27T09:48:53.581Z,34.70
2018-07-27T09:51:22.693Z,34.70
2018-07-27T09:53:50.243Z,34.70
2018-07-27T09:56:17.558Z,34.80
2018-07-27T09:58:50.122Z,34.60
2018-07-27T10:01:24.903Z,34.50
2018-07-27T10:03:53.040Z,34.60
2018-07-27T10:06:20.541Z,34.70
2018-07-27T10:08:52.606Z,34.70
2018-07-27T10:11:20.377Z,34.80
2018-07-27T10:13:47.968Z,34.90
2018-07-27T10:16:15.510Z,34.90
2018-07-27T10:18:43.061Z,35.00
2018-07-27T10:21:15.290Z,35.10
2018-07-27T10:23:42.903Z,35.10
2018-07-27T10:26:10.546Z,35.10
2018-07-27T10:28:38.130Z,35.10
2018-07-27T10:31:05.781Z,35.30
2018-07-27T10:33:33.359Z,35.30
2018-07-27T10:36:00.909Z,35.40
2018-07-27T10:38:30.710Z,35.30
2018-07-27T10:40:58.199Z,35.40
2018-07-27T10:43:25.780Z,35.40
2018-07-27T10:45:53.369Z,35.50
2018-07-27T10:48:21.039Z,35.40
2018-07-27T10:50:48.651Z,35.40
2018-07-27T10:53:18.980Z,35.50
2018-07-27T10:55:46.522Z,35.50
2018-07-27T10:58:14.065Z,35.50
2018-07-27T11:00:41.708Z,35.50
2018-07-27T11:03:09.435Z,35.40
2018-07-27T11:05:36.979Z,35.50
2018-07-27T11:08:07.352Z,35.60
2018-07-27T11:10:34.929Z,35.50
2018-07-27T11:13:02.492Z,35.50
2018-07-27T11:15:30.081Z,35.40
2018-07-27T11:17:57.687Z,35.40
2018-07-27T11:20:25.270Z,35.50
2018-07-27T11:22:57.508Z,35.50
2018-07-27T11:25:25.097Z,35.60
2018-07-27T11:27:52.702Z,35.70
2018-07-27T11:30:20.329Z,35.80
2018-07-27T11:32:47.965Z,35.80
2018-07-27T11:35:15.592Z,35.80
2018-07-27T11:37:47.686Z,36.00
2018-07-27T11:40:15.296Z,36.00
2018-07-27T11:42:42.917Z,36.00
2018-07-27T11:45:10.576Z,35.90
2018-07-27T11:47:38.119Z,35.80
2018-07-27T11:50:05.750Z,35.80
2018-07-27T11:52:36.223Z,35.80
2018-07-27T11:55:04.563Z,35.80
2018-07-27T11:57:32.098Z,35.80
2018-07-27T11:59:59.656Z,35.90
2018-07-27T12:02:27.220Z,35.90
2018-07-27T12:04:54.763Z,36.00
2018-07-27T12:07:28.837Z,36.00
2018-07-27T12:09:56.405Z,36.10
2018-07-27T12:12:23.967Z,36.10
2018-07-27T12:14:51.664Z,36.00
2018-07-27T12:17:19.183Z,36.10
2018-07-27T12:19:46.790Z,36.20
2018-07-27T12:22:16.935Z,36.30
2018-07-27T12:24:44.567Z,36.20
2018-07-27T12:27:12.349Z,36.20
2018-07-27T12:29:39.837Z,36.30
2018-07-27T12:32:07.439Z,36.30
2018-07-27T12:34:35.062Z,36.30
2018-07-27T12:39:35.142Z,36.40
2018-07-27T12:42:02.772Z,36.30
2018-07-27T12:44:30.514Z,36.30
2018-07-27T12:46:58.088Z,36.30
2018-07-27T12:49:30.766Z,36.30
2018-07-27T12:51:58.452Z,36.30
2018-07-27T12:54:26.142Z,36.30
2018-07-27T12:56:53.686Z,36.30
2018-07-27T12:59:21.340Z,36.20
2018-07-27T13:01:48.930Z,36.20
2018-07-27T13:04:16.496Z,36.20
2018-07-27T13:06:44.120Z,36.30
2018-07-27T13:09:12.123Z,36.20
2018-07-27T13:11:39.768Z,36.30
2018-07-27T13:14:07.612Z,36.30
2018-07-27T13:16:35.203Z,36.20
2018-07-27T13:19:03.262Z,36.20
2018-07-27T13:21:30.968Z,36.20
2018-07-27T13:23:59.762Z,36.30
2018-07-27T13:26:27.411Z,36.30
2018-07-27T13:28:54.947Z,36.40
2018-07-27T13:31:58.510Z,36.50
2018-07-27T13:35:01.935Z,36.50
2018-07-27T13:39:59.857Z,36.20
2018-07-27T13:42:28.764Z,36.30
2018-07-27T13:44:56.226Z,36.30
2018-07-27T13:47:23.878Z,36.50
2018-07-27T13:49:51.609Z,36.50
2018-07-27T13:52:23.198Z,36.60
2018-07-27T13:54:50.636Z,36.60
2018-07-27T13:57:18.141Z,36.60
2018-07-27T13:59:49.582Z,36.60
2018-07-27T14:02:17.024Z,36.60
2018-07-27T14:04:44.487Z,36.60
2018-07-27T14:07:12.470Z,36.60
2018-07-27T14:09:39.945Z,36.50
2018-07-27T14:12:09.774Z,36.50
2018-07-27T14:14:37.157Z,36.60
2018-07-27T14:17:05.394Z,36.70
2018-07-27T14:19:36.245Z,36.60
2018-07-27T14:22:03.677Z,36.60
2018-07-27T14:24:33.201Z,36.60
2018-07-27T14:27:00.591Z,36.60
2018-07-27T14:29:28.048Z,36.60
2018-07-27T14:31:55.482Z,36.50
2018-07-27T14:34:22.887Z,36.60
2018-07-27T14:36:50.285Z,36.60
2018-07-27T14:39:17.745Z,36.40
2018-07-27T14:41:45.246Z,36.40
2018-07-27T14:44:12.614Z,36.40
2018-07-27T14:46:40.075Z,36.40
2018-07-27T14:49:12.822Z,36.50
2018-07-27T14:51:40.714Z,36.50
2018-07-27T14:54:09.561Z,36.40
2018-07-27T14:56:38.031Z,36.40
2018-07-27T14:59:05.514Z,36.40
2018-07-27T15:01:32.922Z,36.40
2018-07-27T15:04:00.297Z,36.30
2018-07-27T15:06:27.820Z,36.20
2018-07-27T15:08:55.183Z,36.20
2018-07-27T15:11:22.525Z,36.30
2018-07-27T15:13:49.870Z,36.40
2018-07-27T15:16:17.276Z,36.30
2018-07-27T15:18:44.742Z,36.30
2018-07-27T15:21:12.196Z,36.30
2018-07-27T15:23:39.554Z,36.20
2018-07-27T15:26:06.994Z,36.20
2018-07-27T15:28:34.680Z,36.20
2018-07-27T15:31:02.311Z,36.30
2018-07-27T15:33:29.849Z,36.20
2018-07-27T15:35:57.242Z,36.30
2018-07-27T15:38:24.598Z,36.20
2018-07-27T15:40:55.127Z,36.20
2018-07-27T15:43:22.530Z,36.20
2018-07-27T15:45:50.075Z,36.20
2018-07-27T15:48:17.578Z,36.00
2018-07-27T15:50:47.805Z,35.90
2018-07-27T15:53:19.692Z,35.90
2018-07-27T15:55:47.295Z,35.90
2018-07-27T15:58:14.724Z,35.80
2018-07-27T16:00:42.073Z,35.80
2018-07-27T16:03:09.514Z,35.80
2018-07-27T16:05:36.918Z,35.70
2018-07-27T16:08:04.398Z,35.60
2018-07-27T16:10:31.878Z,35.60
2018-07-27T16:12:59.313Z,35.50
2018-07-27T16:15:26.725Z,35.50
2018-07-27T16:17:54.734Z,35.40
2018-07-27T16:20:22.302Z,35.20
2018-07-27T16:22:50.029Z,35.70
2018-07-27T16:25:17.773Z,35.40
2018-07-27T16:27:45.373Z,35.50
2018-07-27T16:32:40.571Z,35.40
2018-07-27T16:35:17.855Z,35.40
2018-07-27T16:37:45.630Z,35.40
2018-07-27T16:40:13.315Z,35.30
2018-07-27T16:42:59.186Z,35.20
2018-07-27T16:45:26.946Z,35.20
2018-07-27T16:47:54.872Z,35.10
2018-07-27T16:50:23.679Z,35.10
2018-07-27T16:52:51.660Z,35.10
2018-07-27T16:55:19.256Z,35.00
2018-07-27T16:57:47.123Z,34.80
2018-07-27T17:00:14.791Z,34.80
2018-07-27T17:02:42.455Z,34.80
2018-07-27T17:05:10.309Z,34.80
2018-07-27T17:07:37.873Z,34.80
2018-07-27T17:10:05.531Z,34.70
2018-07-27T17:12:33.625Z,34.70
2018-07-27T17:15:01.248Z,34.60
2018-07-27T17:17:28.835Z,34.60
2018-07-27T17:19:56.483Z,34.60
2018-07-27T17:22:24.030Z,34.60
2018-07-27T17:24:51.706Z,34.50
2018-07-27T17:27:19.303Z,34.50
2018-07-27T17:29:47.038Z,34.40
2018-07-27T17:32:14.686Z,34.40
2018-07-27T17:34:42.320Z,34.20
2018-07-27T17:37:09.897Z,34.30
2018-07-27T17:39:37.622Z,34.30
2018-07-27T17:42:05.354Z,34.20
2018-07-27T17:44:32.945Z,34.00
2018-07-27T17:47:00.524Z,34.00
2018-07-27T17:49:28.131Z,34.00
2018-07-27T17:51:55.819Z,33.90
2018-07-27T17:54:23.404Z,33.80
2018-07-27T17:56:50.995Z,33.70
2018-07-27T17:59:18.562Z,33.70
2018-07-27T18:01:46.291Z,33.70
2018-07-27T18:04:13.840Z,33.60
2018-07-27T18:06:41.539Z,33.70
2018-07-27T18:09:10.917Z,33.70
2018-07-27T18:11:39.293Z,33.50
2018-07-27T18:14:06.941Z,33.50
2018-07-27T18:16:34.648Z,33.40
2018-07-27T18:19:02.400Z,33.50
2018-07-27T18:21:30.036Z,33.40
2018-07-27T18:23:57.895Z,33.40
2018-07-27T18:26:25.908Z,33.30
2018-07-27T18:28:53.879Z,33.20
2018-07-27T18:31:21.996Z,33.20
2018-07-27T18:33:49.928Z,33.20
2018-07-27T18:36:17.749Z,33.20
2018-07-27T18:38:46.073Z,33.10
2018-07-27T18:41:16.318Z,33.10
2018-07-27T18:43:44.167Z,33.00
2018-07-27T18:46:12.190Z,32.90
2018-07-27T18:48:40.770Z,32.90
2018-07-27T18:51:12.952Z,32.80
2018-07-27T18:53:41.167Z,32.70
2018-07-27T18:56:09.267Z,32.60
2018-07-27T18:58:36.934Z,32.70
2018-07-27T19:01:05.239Z,32.60
2018-07-27T19:03:37.904Z,32.60
2018-07-27T19:06:05.815Z,32.50
2018-07-27T19:08:33.593Z,32.40
2018-07-27T19:11:01.653Z,32.30
2018-07-27T19:13:29.681Z,32.30
2018-07-27T19:15:58.002Z,32.20
2018-07-27T19:18:25.693Z,32.20
2018-07-27T19:20:53.711Z,32.30
2018-07-27T19:23:21.657Z,32.20
2018-07-27T19:28:17.287Z,32.10
2018-07-27T19:30:45.026Z,32.00
2018-07-27T19:33:12.987Z,31.90
2018-07-27T19:35:41.179Z,31.80
2018-07-27T19:38:09.380Z,31.80
2018-07-27T19:40:38.075Z,31.70
2018-07-27T19:43:05.945Z,31.70
2018-07-27T19:45:33.953Z,31.60
2018-07-27T19:48:06.266Z,31.60
2018-07-27T19:50:34.224Z,31.50
2018-07-27T19:53:02.079Z,31.50
2018-07-27T19:55:30.009Z,31.40
2018-07-27T19:57:57.995Z,31.30
2018-07-27T20:00:30.698Z,31.20
2018-07-27T20:02:58.675Z,31.20
2018-07-27T20:05:26.843Z,31.10
2018-07-27T20:07:54.988Z,31.10
2018-07-27T20:10:22.938Z,31.10
2018-07-27T20:12:53.668Z,31.00
2018-07-27T20:15:21.442Z,30.90
2018-07-27T20:17:49.260Z,30.80
2018-07-27T20:20:17.187Z,30.80
2018-07-27T20:22:44.840Z,30.80
2018-07-27T20:25:18.287Z,30.70
2018-07-27T20:27:46.197Z,30.60
2018-07-27T20:30:13.979Z,30.60
2018-07-27T20:32:41.562Z,30.50
2018-07-27T20:37:36.726Z,30.50
2018-07-27T20:40:08.085Z,30.40
2018-07-27T20:42:35.803Z,30.40
2018-07-27T20:45:04.965Z,30.30
2018-07-27T20:47:32.603Z,30.20
2018-07-27T20:50:00.258Z,30.10
2018-07-27T20:52:31.139Z,30.00
2018-07-27T20:54:58.647Z,30.00
2018-07-27T20:57:26.264Z,29.90
2018-07-27T20:59:53.714Z,29.90
2018-07-27T21:02:21.062Z,29.80
2018-07-27T21:04:48.422Z,29.70
2018-07-27T21:07:19.999Z,29.60
2018-07-27T21:09:47.413Z,29.60
2018-07-27T21:12:14.779Z,29.50
2018-07-27T21:14:42.215Z,29.40
2018-07-27T21:17:09.589Z,29.40
2018-07-27T21:19:36.982Z,29.30
2018-07-27T21:22:09.998Z,29.20
2018-07-27T21:24:37.373Z,29.20
2018-07-27T21:27:04.862Z,29.20
2018-07-27T21:29:32.239Z,29.10
2018-07-27T21:31:59.733Z,29.00
2018-07-27T21:34:27.134Z,28.90
2018-07-27T21:36:54.511Z,28.80
2018-07-27T21:39:22.038Z,28.70
2018-07-27T21:41:49.453Z,28.70
2018-07-27T21:44:16.890Z,28.60
2018-07-27T21:46:44.346Z,28.60
2018-07-27T21:49:11.706Z,28.50
2018-07-27T21:51:39.313Z,28.50
2018-07-27T21:54:06.762Z,28.40
2018-07-27T21:56:34.258Z,28.40
2018-07-27T21:59:01.723Z,28.30
2018-07-27T22:01:29.855Z,28.20
2018-07-27T22:06:24.724Z,28.10
2018-07-27T22:08:53.024Z,28.10
2018-07-27T22:11:20.918Z,28.00
2018-07-27T22:13:48.367Z,28.00
2018-07-27T22:16:15.935Z,27.90
2018-07-27T22:18:43.625Z,27.80
2018-07-27T22:21:11.064Z,27.80
2018-07-27T22:23:38.479Z,27.40
2018-07-27T22:26:05.929Z,27.60
2018-07-27T22:28:33.297Z,27.50
2018-07-27T22:31:00.701Z,27.50
2018-07-27T22:33:31.477Z,27.40
2018-07-27T22:35:58.911Z,27.30
2018-07-27T22:38:26.323Z,27.30
2018-07-27T22:40:53.806Z,27.20
2018-07-27T22:43:21.531Z,27.20
2018-07-27T22:45:49.005Z,27.10
2018-07-27T22:48:16.466Z,26.90
2018-07-27T22:50:43.920Z,27.10
2018-07-27T22:53:11.353Z,27.00
2018-07-27T22:55:38.808Z,27.00
2018-07-27T22:58:06.297Z,26.90
2018-07-27T23:00:33.791Z,26.90
2018-07-27T23:05:28.894Z,26.80
2018-07-27T23:07:56.322Z,26.70
2018-07-27T23:10:23.778Z,26.60
2018-07-27T23:12:51.255Z,26.60
2018-07-27T23:15:18.668Z,26.60
2018-07-27T23:17:46.022Z,26.50
2018-07-27T23:20:14.126Z,26.50
2018-07-27T23:22:42.753Z,26.40
2018-07-27T23:25:10.423Z,26.40
2018-07-27T23:27:37.906Z,26.30
2018-07-27T23:30:07.195Z,26.20
2018-07-27T23:32:34.654Z,26.20
2018-07-27T23:35:02.109Z,26.10
2018-07-27T23:37:30.764Z,26.10
2018-07-27T23:39:58.210Z,26.00
2018-07-27T23:42:25.754Z,26.00
2018-07-27T23:44:53.466Z,25.90
2018-07-27T23:47:21.254Z,25.90
2018-07-27T23:49:48.753Z,25.80
2018-07-27T23:52:16.219Z,25.80
2018-07-27T23:54:43.594Z,25.70
2018-07-27T23:57:11.189Z,25.70
2018-07-27T23:59:38.589Z,25.70
